Time;durP1;ratioP1;P1;durP2;ratioP2;P2;SDS_P1;SDS_P2;PMS_P1;PMS_P2;Temp;Humidity;BMP_temperature;BMP_pressure;BME280_temperature;BME280_humidity;BME280_pressure;Samples;Min_cycle;Max_cycle;Signal;HPM_P1;HPM_P2
2022/11/08 00:02:07;;;;;;;4.10;0.50;;;13.20;99.90;;;;;;5054584;28;20229;-82
2022/11/08 00:04:33;;;;;;;1.77;0.20;;;13.20;99.90;;;;;;5056056;28;20511;-84
2022/11/08 00:15:11;;;;;;;3.03;0.70;;;13.40;99.90;;;;;;5053766;28;20447;-83
2022/11/08 00:17:37;;;;;;;5.03;0.83;;;13.40;99.90;;;;;;5053431;28;20416;-92
2022/11/08 00:20:04;;;;;;;3.73;0.60;;;13.40;99.90;;;;;;5053391;28;20217;-82
2022/11/08 00:22:30;;;;;;;2.70;0.40;;;13.40;99.90;;;;;;5053343;28;20178;-85
2022/11/08 00:24:56;;;;;;;3.33;0.57;;;13.50;99.90;;;;;;5052848;28;20410;-85
2022/11/08 00:27:23;;;;;;;4.90;0.97;;;13.40;99.90;;;;;;5053969;28;20930;-83
2022/11/08 00:29:49;;;;;;;4.43;0.40;;;13.40;99.90;;;;;;5057353;28;20452;-86
2022/11/08 00:32:17;;;;;;;4.43;0.50;;;13.40;99.90;;;;;;5057336;28;20467;-82
2022/11/08 00:34:43;;;;;;;1.97;0.37;;;13.40;99.90;;;;;;5056955;28;20229;-82
2022/11/08 00:37:09;;;;;;;1.53;0.20;;;13.40;99.90;;;;;;5057258;28;20414;-85
2022/11/08 00:39:35;;;;;;;1.80;0.40;;;13.40;99.90;;;;;;5056612;28;20418;-90
2022/11/08 00:42:01;;;;;;;4.07;0.80;;;13.40;99.90;;;;;;5057091;28;20922;-82
2022/11/08 00:44:26;;;;;;;3.17;0.50;;;13.30;99.90;;;;;;5063536;28;20218;-93
2022/11/08 00:46:54;;;;;;;3.53;0.67;;;13.30;99.90;;;;;;5065564;28;20245;-81
2022/11/08 00:49:19;;;;;;;3.00;0.50;;;13.20;99.90;;;;;;5065744;28;20194;-82
2022/11/08 00:51:45;;;;;;;3.10;0.40;;;13.10;99.90;;;;;;5068819;28;20456;-84
2022/11/08 00:54:16;;;;;;;5.30;1.07;;;13.10;99.90;;;;;;5066682;28;20186;-81
2022/11/08 00:56:46;;;;;;;2.50;0.30;;;13.10;99.90;;;;;;5063073;28;20223;-92
2022/11/08 00:59:13;;;;;;;0.53;0.20;;;13.10;99.90;;;;;;5062088;28;20420;-81
2022/11/08 01:01:40;;;;;;;1.10;0.33;;;13.10;99.90;;;;;;5063579;28;20416;-92
2022/11/08 01:04:07;;;;;;;1.07;0.40;;;13.00;99.90;;;;;;5066864;28;20415;-82
2022/11/08 01:06:33;;;;;;;3.03;0.20;;;13.00;99.90;;;;;;5067257;28;20469;-81
2022/11/08 01:08:58;;;;;;;3.90;0.33;;;12.80;99.90;;;;;;5067235;28;20946;-83
2022/11/08 01:11:25;;;;;;;5.20;0.63;;;12.80;99.90;;;;;;5062636;28;20306;-90
2022/11/08 01:13:54;;;;;;;10.50;0.57;;;12.90;99.90;;;;;;5056433;28;20237;-81
2022/11/08 01:16:22;;;;;;;7.03;0.80;;;12.80;99.90;;;;;;5056491;28;20416;-87
2022/11/08 01:18:50;;;;;;;2.50;0.57;;;12.70;99.90;;;;;;5056232;28;20478;-88
2022/11/08 01:21:16;;;;;;;3.43;0.43;;;12.60;99.90;;;;;;5056409;28;20504;-87
2022/11/08 01:23:44;;;;;;;1.03;0.20;;;12.60;99.90;;;;;;5055735;28;20756;-90
2022/11/08 01:26:14;;;;;;;2.87;0.60;;;12.60;99.90;;;;;;5060546;28;20428;-80
2022/11/08 01:28:40;;;;;;;0.80;0.20;;;12.60;99.90;;;;;;5067556;28;20429;-81
2022/11/08 01:31:10;;;;;;;1.47;0.30;;;12.60;99.90;;;;;;5057787;28;20449;-94
2022/11/08 01:33:37;;;;;;;0.90;0.30;;;12.60;99.90;;;;;;5063931;28;20183;-80
2022/11/08 01:36:05;;;;;;;3.63;0.40;;;12.60;99.90;;;;;;5064171;28;20473;-87
2022/11/08 01:38:31;;;;;;;1.83;0.30;;;12.60;99.90;;;;;;5055776;28;20413;-84
2022/11/08 01:40:57;;;;;;;1.03;0.30;;;12.50;99.90;;;;;;5055647;28;20421;-80
2022/11/08 01:43:25;;;;;;;2.80;0.37;;;12.60;99.90;;;;;;5055831;28;20421;-93
2022/11/08 01:46:30;;;;;;;1.87;0.30;;;12.50;99.90;;;;;;5055913;28;20193;-81
2022/11/08 01:49:16;;;;;;;2.60;0.53;;;12.40;99.90;;;;;;5056876;28;20412;-80
2022/11/08 01:51:59;;;;;;;6.53;0.30;;;12.30;99.90;;;;;;5055808;28;20522;-84
2022/11/08 01:54:45;;;;;;;1.70;0.43;;;12.40;99.90;;;;;;5055608;28;20489;-84
2022/11/08 01:57:16;;;;;;;1.17;0.30;;;12.40;99.90;;;;;;5055795;28;20429;-82
2022/11/08 01:59:44;;;;;;;2.83;0.43;;;12.30;99.90;;;;;;5056026;28;20810;-93
2022/11/08 02:02:11;;;;;;;6.23;0.57;;;12.30;99.90;;;;;;5056165;28;20420;-88
2022/11/08 02:04:39;;;;;;;2.93;0.40;;;12.30;99.90;;;;;;5055245;28;20431;-91
2022/11/08 02:07:06;;;;;;;5.80;0.60;;;12.20;99.90;;;;;;5055805;28;20420;-83
2022/11/08 02:09:34;;;;;;;3.43;0.50;;;12.20;99.90;;;;;;5055534;28;20424;-81
2022/11/08 02:12:00;;;;;;;2.17;0.30;;;12.40;99.90;;;;;;5054966;28;20518;-81
2022/11/08 02:14:26;;;;;;;2.03;0.23;;;12.30;99.90;;;;;;5052356;28;20426;-91
2022/11/08 02:16:52;;;;;;;3.20;1.37;;;12.30;99.90;;;;;;5055417;28;20430;-89
2022/11/08 02:19:31;;;;;;;4.57;0.47;;;12.30;99.90;;;;;;5059598;28;20176;-87
2022/11/08 02:22:02;;;;;;;2.03;0.40;;;12.40;99.90;;;;;;5059201;28;20177;-79
2022/11/08 02:24:27;;;;;;;1.47;0.57;;;12.40;99.90;;;;;;5055235;28;20436;-91
2022/11/08 02:26:55;;;;;;;2.73;0.30;;;12.40;99.90;;;;;;5060147;28;20409;-81
2022/11/08 02:29:21;;;;;;;1.60;0.30;;;12.30;99.90;;;;;;5056112;28;20200;-79
2022/11/08 02:31:47;;;;;;;3.13;0.40;;;12.20;99.90;;;;;;5058367;28;21039;-89
2022/11/08 02:34:12;;;;;;;4.00;0.40;;;12.30;99.90;;;;;;5058828;28;20449;-87
2022/11/08 02:36:38;;;;;;;0.90;0.20;;;12.40;99.90;;;;;;5057721;28;20187;-87
2022/11/08 02:39:03;;;;;;;4.13;0.27;;;12.40;99.90;;;;;;5056026;28;20200;-81
2022/11/08 02:41:29;;;;;;;1.50;0.33;;;12.40;99.90;;;;;;5056179;28;20172;-89
2022/11/08 02:43:56;;;;;;;4.60;0.70;;;12.30;99.90;;;;;;5057231;28;20190;-80
2022/11/08 02:46:21;;;;;;;1.67;0.37;;;12.30;99.90;;;;;;5056851;28;20311;-84
2022/11/08 02:48:47;;;;;;;2.43;0.40;;;12.30;99.90;;;;;;5059750;28;20455;-81
2022/11/08 02:51:12;;;;;;;1.20;0.20;;;12.20;99.90;;;;;;5057244;28;20212;-80
2022/11/08 02:53:38;;;;;;;2.17;0.33;;;12.20;99.90;;;;;;5061453;28;20186;-80
2022/11/08 02:56:03;;;;;;;4.67;0.67;;;12.20;99.90;;;;;;5059151;28;20207;-80
2022/11/08 02:58:29;;;;;;;0.63;0.27;;;12.20;99.90;;;;;;5056497;28;20191;-86
2022/11/08 03:00:55;;;;;;;4.23;0.30;;;12.20;99.90;;;;;;5054911;28;20207;-84
2022/11/08 03:03:20;;;;;;;2.00;0.30;;;12.20;99.90;;;;;;5056906;28;20204;-81
2022/11/08 03:05:46;;;;;;;1.73;0.20;;;12.10;99.90;;;;;;5054509;28;20654;-81
2022/11/08 03:08:12;;;;;;;2.00;0.60;;;12.10;99.90;;;;;;5054014;28;20174;-81
2022/11/08 03:10:38;;;;;;;5.70;0.50;;;12.10;99.90;;;;;;5054136;28;20543;-85
2022/11/08 03:13:04;;;;;;;1.83;0.50;;;12.00;99.90;;;;;;5054101;28;20551;-82
2022/11/08 03:15:31;;;;;;;1.90;0.40;;;11.90;99.90;;;;;;5054101;28;20702;-82
2022/11/08 03:17:58;;;;;;;0.90;0.20;;;11.80;99.90;;;;;;5054252;28;20422;-87
2022/11/08 03:20:24;;;;;;;2.53;0.40;;;11.70;99.90;;;;;;5054011;28;20413;-83
2022/11/08 03:22:59;;;;;;;4.80;0.50;;;11.60;99.90;;;;;;5053925;28;20935;-82
2022/11/08 03:25:25;;;;;;;3.23;0.40;;;11.70;99.90;;;;;;5053625;28;21215;-88
2022/11/08 03:27:51;;;;;;;5.20;0.87;;;11.70;99.90;;;;;;5053845;28;20507;-82
2022/11/08 03:30:17;;;;;;;2.80;0.33;;;11.60;99.90;;;;;;5053768;28;20409;-82
2022/11/08 03:32:46;;;;;;;2.27;0.30;;;11.60;99.90;;;;;;5053715;28;20213;-84
2022/11/08 03:35:12;;;;;;;2.67;0.20;;;11.50;99.90;;;;;;5053788;28;20169;-82
2022/11/08 03:37:38;;;;;;;4.83;0.83;;;11.40;99.90;;;;;;5053820;28;20439;-83
2022/11/08 03:40:04;;;;;;;1.77;0.47;;;11.40;99.90;;;;;;5053234;28;20891;-84
2022/11/08 03:42:29;;;;;;;2.50;0.40;;;11.30;99.90;;;;;;5053590;28;20536;-83
2022/11/08 03:44:55;;;;;;;1.23;0.47;;;11.20;99.90;;;;;;5053582;28;20495;-83
2022/11/08 03:47:20;;;;;;;4.73;0.30;;;11.30;99.90;;;;;;5053491;28;20257;-84
2022/11/08 03:49:46;;;;;;;7.37;0.50;;;11.30;99.90;;;;;;5053435;28;20173;-84
2022/11/08 03:52:11;;;;;;;1.90;0.40;;;11.30;99.90;;;;;;5053410;28;20228;-83
2022/11/08 03:54:37;;;;;;;4.20;0.73;;;11.30;99.90;;;;;;5052996;28;20169;-85
2022/11/08 03:57:02;;;;;;;1.17;0.20;;;11.30;99.90;;;;;;5053352;28;20177;-85
2022/11/08 03:59:28;;;;;;;3.57;0.43;;;11.30;99.90;;;;;;5053425;28;20244;-84
2022/11/08 04:01:53;;;;;;;1.50;0.60;;;11.30;99.90;;;;;;5053145;28;20582;-83
2022/11/08 04:04:19;;;;;;;2.93;0.53;;;11.30;99.90;;;;;;5053276;28;20166;-85
2022/11/08 04:06:44;;;;;;;1.70;0.30;;;11.30;99.90;;;;;;5053328;28;20656;-85
2022/11/08 04:09:10;;;;;;;1.60;0.50;;;11.30;99.90;;;;;;5051508;28;20174;-84
2022/11/08 04:17:05;;;;;;;2.20;0.60;;;11.30;99.90;;;;;;5054965;28;20522;-91
2022/11/08 04:22:15;;;;;;;7.80;1.03;;;11.30;99.90;;;;;;5054838;28;20972;-85
2022/11/08 04:24:40;;;;;;;3.37;0.70;;;11.20;99.90;;;;;;5054174;28;20431;-85
2022/11/08 04:27:06;;;;;;;2.40;0.77;;;11.20;99.90;;;;;;5054007;28;20215;-82
2022/11/08 04:29:31;;;;;;;2.30;0.40;;;11.20;99.90;;;;;;5054147;28;20176;-89
2022/11/08 04:31:57;;;;;;;3.30;0.40;;;11.10;99.90;;;;;;5054159;28;20238;-91
2022/11/08 04:34:22;;;;;;;3.30;0.70;;;11.10;99.90;;;;;;5056219;28;20180;-92
2022/11/08 04:36:48;;;;;;;1.90;0.37;;;11.10;99.90;;;;;;5054026;28;20162;-92
2022/11/08 04:39:13;;;;;;;2.13;0.93;;;11.00;99.90;;;;;;5054403;28;20208;-87
2022/11/08 04:41:39;;;;;;;3.30;0.70;;;11.00;99.90;;;;;;5056730;28;20170;-86
2022/11/08 04:44:04;;;;;;;1.47;0.87;;;11.00;99.90;;;;;;5054147;28;20247;-90
2022/11/08 04:46:30;;;;;;;1.50;0.50;;;11.00;99.90;;;;;;5053901;28;20176;-90
2022/11/08 04:48:59;;;;;;;2.00;0.27;;;10.90;99.90;;;;;;5054932;28;20690;-92
2022/11/08 04:51:27;;;;;;;3.10;0.37;;;10.90;99.90;;;;;;5055951;28;20196;-89
2022/11/08 04:53:58;;;;;;;1.80;0.33;;;11.00;99.90;;;;;;5053031;28;20508;-83
2022/11/08 04:56:24;;;;;;;6.10;0.80;;;11.00;99.90;;;;;;5053426;28;20404;-89
2022/11/08 04:58:54;;;;;;;1.37;0.20;;;10.90;99.90;;;;;;5053208;28;20428;-86
2022/11/08 05:01:22;;;;;;;1.40;0.67;;;10.80;99.90;;;;;;5053210;28;20400;-80
2022/11/08 05:03:49;;;;;;;4.53;0.50;;;10.90;99.90;;;;;;5053224;28;20423;-87
2022/11/08 05:06:22;;;;;;;2.20;0.37;;;10.90;99.90;;;;;;5053119;28;20489;-88
2022/11/08 05:08:47;;;;;;;1.73;0.30;;;10.90;99.90;;;;;;5052846;28;20857;-89
2022/11/08 05:11:19;;;;;;;4.40;0.73;;;10.80;99.90;;;;;;5053025;28;20495;-84
2022/11/08 05:13:45;;;;;;;3.90;0.20;;;10.70;99.90;;;;;;5052928;28;20957;-91
2022/11/08 05:16:22;;;;;;;1.77;0.30;;;10.60;99.90;;;;;;5056370;28;20419;-85
2022/11/08 05:18:48;;;;;;;3.43;0.83;;;10.70;99.90;;;;;;5056921;28;20424;-86
2022/11/08 05:24:02;;;;;;;2.60;0.60;;;10.50;99.90;;;;;;5056843;28;20788;-87
2022/11/08 05:26:28;;;;;;;4.43;0.40;;;10.50;99.90;;;;;;5057049;28;20852;-89
2022/11/08 05:28:54;;;;;;;2.67;0.37;;;10.50;99.90;;;;;;5056879;28;20961;-92
2022/11/08 05:31:19;;;;;;;1.13;0.40;;;10.40;99.90;;;;;;5056863;28;20428;-94
2022/11/08 05:33:45;;;;;;;0.93;0.30;;;10.30;99.90;;;;;;5057913;28;20188;-85
2022/11/08 05:36:13;;;;;;;5.20;0.53;;;10.20;99.90;;;;;;5057917;28;20191;-81
2022/11/08 05:38:39;;;;;;;5.60;1.00;;;10.30;99.90;;;;;;5056876;28;20238;-95
2022/11/08 05:41:14;;;;;;;3.90;0.77;;;10.20;99.90;;;;;;5057322;28;20926;-93
2022/11/08 05:43:41;;;;;;;2.50;0.67;;;10.10;99.90;;;;;;5058011;28;20438;-95
2022/11/08 05:46:07;;;;;;;2.47;0.67;;;10.10;99.90;;;;;;5058038;28;20411;-94
2022/11/08 05:48:32;;;;;;;3.50;1.00;;;10.00;99.90;;;;;;5056896;28;20416;-93
2022/11/08 05:50:58;;;;;;;1.33;0.40;;;10.00;99.90;;;;;;5056761;28;20170;-81
2022/11/08 05:53:24;;;;;;;7.90;0.83;;;9.90;99.90;;;;;;5056681;28;20290;-93
2022/11/08 05:55:49;;;;;;;3.40;1.00;;;9.90;99.90;;;;;;5056959;28;20262;-93
2022/11/08 05:58:16;;;;;;;4.37;1.33;;;9.90;99.90;;;;;;5057357;28;20465;-81
2022/11/08 06:00:41;;;;;;;2.30;0.53;;;9.90;99.90;;;;;;5057258;28;20176;-81
2022/11/08 06:03:07;;;;;;;3.80;0.63;;;9.80;99.90;;;;;;5056697;28;20426;-94
2022/11/08 06:05:33;;;;;;;4.23;0.63;;;9.80;99.90;;;;;;5057534;28;20172;-82
2022/11/08 06:07:59;;;;;;;2.27;0.70;;;9.80;99.90;;;;;;5055828;28;20259;-93
2022/11/08 06:10:25;;;;;;;2.40;0.73;;;9.80;99.90;;;;;;5055415;28;20447;-94
2022/11/08 06:12:50;;;;;;;4.07;0.67;;;9.80;99.90;;;;;;5055464;28;20238;-81
2022/11/08 06:15:16;;;;;;;2.87;0.70;;;9.80;99.90;;;;;;5055444;28;20450;-82
2022/11/08 06:17:41;;;;;;;1.60;0.60;;;9.80;99.90;;;;;;5055540;28;20187;-87
2022/11/08 06:20:08;;;;;;;2.50;0.50;;;9.90;99.90;;;;;;5055864;28;20534;-89
2022/11/08 06:22:34;;;;;;;4.90;1.00;;;10.00;99.90;;;;;;5056070;28;20214;-81
2022/11/08 06:25:00;;;;;;;4.00;0.60;;;10.10;99.90;;;;;;5055000;28;20421;-82
2022/11/08 06:27:26;;;;;;;5.70;0.93;;;10.20;99.90;;;;;;5055306;28;20511;-83
2022/11/08 06:29:52;;;;;;;2.90;1.17;;;10.30;99.90;;;;;;5055471;28;20816;-83
2022/11/08 06:32:18;;;;;;;2.70;0.97;;;10.30;99.90;;;;;;5055609;28;20497;-82
2022/11/08 06:34:47;;;;;;;2.47;0.33;;;10.40;99.90;;;;;;5055217;28;20181;-81
2022/11/08 06:37:14;;;;;;;2.17;0.40;;;10.40;99.90;;;;;;5055406;28;20635;-81
2022/11/08 06:39:40;;;;;;;2.23;0.83;;;10.50;99.90;;;;;;5055086;28;20433;-80
2022/11/08 06:42:06;;;;;;;1.43;0.67;;;10.60;99.90;;;;;;5055229;28;20433;-83
2022/11/08 06:44:32;;;;;;;2.10;0.60;;;10.60;99.90;;;;;;5055065;28;20427;-81
2022/11/08 06:46:58;;;;;;;2.53;0.50;;;10.70;99.90;;;;;;5055139;28;20193;-83
2022/11/08 06:49:25;;;;;;;4.33;0.97;;;10.80;99.90;;;;;;5054841;28;20182;-83
2022/11/08 06:51:51;;;;;;;1.90;0.70;;;10.80;99.90;;;;;;5055326;28;20472;-82
2022/11/08 06:54:17;;;;;;;4.97;0.93;;;10.90;99.90;;;;;;5054914;28;20423;-83
2022/11/08 06:56:43;;;;;;;1.40;0.50;;;10.90;99.90;;;;;;5055613;28;20854;-83
2022/11/08 06:59:09;;;;;;;3.20;0.93;;;10.90;99.90;;;;;;5055319;28;20406;-82
2022/11/08 07:01:35;;;;;;;4.30;0.93;;;10.90;99.90;;;;;;5055181;28;20465;-80
2022/11/08 07:04:01;;;;;;;9.33;1.10;;;10.90;99.90;;;;;;5055496;28;20173;-82
2022/11/08 07:06:28;;;;;;;7.10;0.70;;;10.90;99.90;;;;;;5054830;28;20418;-83
2022/11/08 07:08:54;;;;;;;3.23;1.17;;;10.90;99.90;;;;;;5054378;28;20413;-82
2022/11/08 07:11:19;;;;;;;3.73;0.77;;;10.90;99.90;;;;;;5053272;28;20457;-82
2022/11/08 07:13:46;;;;;;;1.90;0.50;;;10.90;99.90;;;;;;5053608;28;20184;-82
2022/11/08 07:16:12;;;;;;;1.43;0.47;;;10.90;99.90;;;;;;5054186;28;20161;-82
2022/11/08 07:18:38;;;;;;;4.60;1.00;;;10.90;99.90;;;;;;5053594;28;20412;-81
2022/11/08 07:21:03;;;;;;;5.10;0.67;;;10.90;99.90;;;;;;5054102;28;20764;-83
2022/11/08 07:23:29;;;;;;;3.97;0.83;;;10.90;99.90;;;;;;5053688;28;20169;-82
2022/11/08 07:25:55;;;;;;;3.27;0.57;;;10.90;99.90;;;;;;5054130;28;20174;-87
2022/11/08 07:28:20;;;;;;;1.80;0.30;;;10.90;99.90;;;;;;5053941;28;20178;-82
2022/11/08 07:30:47;;;;;;;7.43;1.60;;;10.90;99.90;;;;;;5053732;28;20511;-81
2022/11/08 07:33:14;;;;;;;5.80;1.00;;;10.90;99.90;;;;;;5054220;28;20622;-81
2022/11/08 07:35:40;;;;;;;3.33;0.40;;;11.00;99.90;;;;;;5052968;28;20431;-82
2022/11/08 07:38:06;;;;;;;2.60;0.60;;;11.00;99.90;;;;;;5052989;28;20464;-90
2022/11/08 07:40:33;;;;;;;3.03;0.60;;;11.00;99.90;;;;;;5054402;28;20408;-82
2022/11/08 07:43:00;;;;;;;3.43;0.60;;;11.20;99.90;;;;;;5054670;28;20172;-80
2022/11/08 07:45:26;;;;;;;2.20;0.50;;;11.30;99.90;;;;;;5054289;28;20423;-81
2022/11/08 07:47:59;;;;;;;1.90;0.80;;;11.50;99.90;;;;;;5053984;28;20411;-82
2022/11/08 07:50:25;;;;;;;3.20;0.77;;;11.60;99.90;;;;;;5054251;28;20408;-81
2022/11/08 07:52:51;;;;;;;3.63;0.63;;;11.60;99.90;;;;;;5053472;28;20559;-82
2022/11/08 07:55:16;;;;;;;4.30;0.90;;;11.80;99.90;;;;;;5052867;28;20784;-83
2022/11/08 07:57:42;;;;;;;1.63;0.47;;;11.90;99.90;;;;;;5054472;28;20685;-83
2022/11/08 08:00:08;;;;;;;1.20;0.30;;;12.00;99.90;;;;;;5053951;28;20169;-82
2022/11/08 08:02:33;;;;;;;7.40;0.60;;;12.20;99.90;;;;;;5053742;28;20178;-84
2022/11/08 08:04:59;;;;;;;3.60;0.47;;;12.40;99.90;;;;;;5053982;28;20409;-82
2022/11/08 08:07:25;;;;;;;1.70;0.40;;;12.60;99.90;;;;;;5053624;28;20170;-84
2022/11/08 08:09:50;;;;;;;4.30;1.50;;;12.70;99.90;;;;;;5053813;28;20222;-81
2022/11/08 08:12:16;;;;;;;3.50;1.90;;;12.90;99.90;;;;;;5053370;28;20219;-85
2022/11/08 08:14:41;;;;;;;3.63;0.50;;;13.30;57.40;;;;;;5053488;28;20179;-83
2022/11/08 08:17:07;;;;;;;1.83;0.50;;;13.60;1.00;;;;;;5053780;28;20180;-82
2022/11/08 08:19:32;;;;;;;5.87;0.57;;;13.10;20.40;;;;;;5053454;28;20267;-80
2022/11/08 08:21:58;;;;;;;3.83;0.40;;;13.00;99.90;;;;;;5052304;28;20189;-81
2022/11/08 08:24:25;;;;;;;0.70;0.30;;;13.50;29.60;;;;;;5051984;28;20183;-87
2022/11/08 08:26:51;;;;;;;3.87;0.33;;;14.30;99.90;;;;;;5053551;28;20198;-82
2022/11/08 08:29:16;;;;;;;2.93;0.60;;;13.90;1.00;;;;;;5053088;28;20426;-82
2022/11/08 08:31:42;;;;;;;3.77;0.20;;;13.80;1.00;;;;;;5052753;28;20200;-83
2022/11/08 08:34:07;;;;;;;3.77;0.67;;;14.50;99.90;;;;;;5053022;28;20621;-86
2022/11/08 08:36:33;;;;;;;2.10;0.70;;;14.50;1.00;;;;;;5053206;28;20174;-85
2022/11/08 08:38:58;;;;;;;2.10;0.40;;;14.30;99.90;;;;;;5052663;28;20181;-83
2022/11/08 08:41:24;;;;;;;1.60;0.20;;;14.70;99.90;;;;;;5053234;28;20176;-83
2022/11/08 08:43:49;;;;;;;2.93;0.40;;;14.50;99.90;;;;;;5053095;28;20263;-85
2022/11/08 08:46:16;;;;;;;2.30;0.50;;;14.20;99.90;;;;;;5053124;28;20257;-87
2022/11/08 08:48:42;;;;;;;2.33;0.20;;;14.40;99.90;;;;;;5054571;28;20177;-87
2022/11/08 08:51:07;;;;;;;1.40;0.30;;;14.60;99.90;;;;;;5057364;28;20430;-86
2022/11/08 08:53:33;;;;;;;1.13;0.20;;;14.60;1.00;;;;;;5056401;28;20265;-82
2022/11/08 08:56:01;;;;;;;2.20;0.50;;;14.60;99.90;;;;;;5057202;28;20213;-86
2022/11/08 08:58:26;;;;;;;4.13;0.50;;;14.50;1.00;;;;;;5057319;28;20264;-86
2022/11/08 09:00:52;;;;;;;2.63;0.97;;;14.60;1.00;;;;;;5056771;28;20434;-81
2022/11/08 09:03:17;;;;;;;1.27;0.50;;;15.00;1.00;;;;;;5056873;28;20174;-82
2022/11/08 09:05:45;;;;;;;1.80;0.20;;;15.30;99.90;;;;;;5057263;28;20213;-91
2022/11/08 09:08:13;;;;;;;2.77;0.40;;;15.60;1.00;;;;;;5057056;28;20655;-86
2022/11/08 09:10:38;;;;;;;1.90;0.20;;;15.70;99.90;;;;;;5056867;28;20458;-84
2022/11/08 09:13:04;;;;;;;2.50;0.40;;;15.70;99.90;;;;;;5057249;28;20459;-88
2022/11/08 09:15:30;;;;;;;5.60;0.30;;;15.90;1.00;;;;;;5056629;28;20201;-88
2022/11/08 09:17:56;;;;;;;1.60;0.37;;;15.80;99.90;;;;;;5056799;28;20255;-84
2022/11/08 09:20:22;;;;;;;0.70;0.20;;;16.50;99.90;;;;;;5056716;28;20165;-85
2022/11/08 09:22:47;;;;;;;2.93;0.30;;;16.50;4.60;;;;;;5056090;28;20416;-90
2022/11/08 09:25:13;;;;;;;1.27;0.40;;;16.40;99.90;;;;;;5056298;28;20291;-90
2022/11/08 09:27:38;;;;;;;1.20;0.20;;;16.60;99.90;;;;;;5056435;28;20171;-90
2022/11/08 09:30:05;;;;;;;4.30;0.30;;;16.50;99.90;;;;;;5056226;28;20509;-82
2022/11/08 09:32:30;;;;;;;3.97;0.70;;;16.60;67.50;;;;;;5056164;28;20209;-92
2022/11/08 09:34:56;;;;;;;1.97;0.30;;;16.90;1.00;;;;;;5056295;28;20414;-89
2022/11/08 09:37:22;;;;;;;1.27;0.57;;;17.00;1.00;;;;;;5054588;28;20920;-89
2022/11/08 09:39:48;;;;;;;1.50;0.20;;;16.80;1.00;;;;;;5056107;28;20412;-83
2022/11/08 09:42:39;;;;;;;2.70;0.30;;;16.10;99.90;;;;;;5050655;28;20787;-87
2022/11/08 09:45:24;;;;;;;3.43;0.33;;;15.80;99.90;;;;;;5051971;28;20185;-87
2022/11/08 09:47:56;;;;;;;3.00;0.47;;;15.90;99.90;;;;;;5055666;28;20985;-86
2022/11/08 09:50:29;;;;;;;1.70;0.40;;;15.40;99.90;;;;;;5055555;28;20776;-94
2022/11/08 09:53:16;;;;;;;1.87;0.20;;;15.70;1.00;;;;;;5054998;28;20460;-84
2022/11/08 09:55:48;;;;;;;4.70;0.63;;;15.50;1.00;;;;;;5053288;28;20448;-87
2022/11/08 09:58:23;;;;;;;5.53;0.47;;;15.40;91.40;;;;;;5053598;28;20486;-87
2022/11/08 10:00:49;;;;;;;3.03;0.37;;;15.40;1.00;;;;;;5058110;28;20414;-86
2022/11/08 10:03:16;;;;;;;4.00;0.53;;;15.20;1.00;;;;;;5055159;28;20418;-87
2022/11/08 10:06:05;;;;;;;2.50;0.20;;;15.40;1.00;;;;;;5055376;28;20514;-89
2022/11/08 10:08:35;;;;;;;1.60;0.23;;;15.10;99.90;;;;;;5054767;28;20427;-87
2022/11/08 10:11:12;;;;;;;1.23;0.30;;;14.70;99.90;;;;;;5056059;28;20470;-83
2022/11/08 10:13:58;;;;;;;2.37;0.30;;;14.90;99.90;;;;;;5057095;28;20953;-89
2022/11/08 10:16:34;;;;;;;3.27;0.50;;;14.90;1.00;;;;;;5055375;28;20452;-84
2022/11/08 10:19:02;;;;;;;1.90;0.30;;;15.20;1.00;;;;;;5057680;28;20433;-90
2022/11/08 10:21:50;;;;;;;4.90;0.60;;;15.60;38.90;;;;;;5058735;28;20409;-86
2022/11/08 10:24:46;;;;;;;1.03;0.20;;;15.90;1.00;;;;;;5056653;28;20414;-89
2022/11/08 10:27:17;;;;;;;1.37;0.30;;;15.80;99.90;;;;;;5055586;28;20939;-89
2022/11/08 10:29:44;;;;;;;1.80;0.33;;;16.00;99.90;;;;;;5054821;28;20417;-87
2022/11/08 10:32:13;;;;;;;3.23;0.20;;;16.20;22.40;;;;;;5054375;28;20958;-85
2022/11/08 10:34:46;;;;;;;2.63;0.57;;;16.10;1.00;;;;;;5055477;28;20416;-88
2022/11/08 10:37:14;;;;;;;2.93;0.30;;;16.10;1.00;;;;;;5054852;28;20911;-91
2022/11/08 10:39:55;;;;;;;2.60;0.40;;;16.00;1.00;;;;;;5055744;28;20420;-87
2022/11/08 10:42:42;;;;;;;1.27;0.20;;;15.90;99.90;;;;;;5054873;28;20448;-90
2022/11/08 10:45:09;;;;;;;1.50;0.20;;;16.00;1.00;;;;;;5055181;28;20451;-87
2022/11/08 10:47:36;;;;;;;0.70;0.20;;;16.10;1.00;;;;;;5054658;28;20967;-94
2022/11/08 10:50:14;;;;;;;3.70;0.60;;;16.10;1.00;;;;;;5055182;28;20447;-88
2022/11/08 10:52:55;;;;;;;3.30;0.40;;;16.40;99.90;;;;;;5055375;28;20477;-92
2022/11/08 10:55:35;;;;;;;2.03;0.20;;;16.40;99.90;;;;;;5055203;28;20415;-89
2022/11/08 10:58:01;;;;;;;1.00;0.20;;;16.20;1.00;;;;;;5054248;28;20998;-88
2022/11/08 11:00:31;;;;;;;4.83;0.40;;;16.20;59.80;;;;;;5054021;28;20435;-87
2022/11/08 11:03:00;;;;;;;1.50;0.30;;;16.20;1.00;;;;;;5054000;28;20220;-84
2022/11/08 11:05:30;;;;;;;0.80;0.20;;;16.20;1.00;;;;;;5054576;28;20779;-90
2022/11/08 11:07:57;;;;;;;1.40;0.23;;;15.90;1.00;;;;;;5054310;28;20414;-87
2022/11/08 11:10:30;;;;;;;2.50;0.30;;;16.10;1.00;;;;;;5054653;28;20505;-85
2022/11/08 11:13:08;;;;;;;2.60;0.20;;;15.90;1.00;;;;;;5053560;28;20477;-88
2022/11/08 11:15:52;;;;;;;2.80;0.30;;;16.10;1.00;;;;;;5061724;28;20405;-93
2022/11/08 11:18:30;;;;;;;0.97;0.20;;;16.10;1.00;;;;;;5067892;28;20414;-90
2022/11/08 11:21:10;;;;;;;1.80;0.30;;;15.90;99.90;;;;;;5062853;28;20426;-89
2022/11/08 11:23:43;;;;;;;1.17;0.37;;;16.00;1.00;;;;;;5066665;28;20429;-93
2022/11/08 11:26:28;;;;;;;1.57;0.30;;;16.10;1.00;;;;;;5064963;28;20435;-92
2022/11/08 11:28:57;;;;;;;2.80;0.60;;;16.20;1.00;;;;;;5066618;28;20399;-92
2022/11/08 11:31:23;;;;;;;2.43;0.30;;;16.20;1.00;;;;;;5067656;28;20461;-93
2022/11/08 11:33:52;;;;;;;5.87;0.20;;;16.10;99.90;;;;;;5065803;28;20920;-87
2022/11/08 11:36:22;;;;;;;1.23;0.20;;;16.20;1.00;;;;;;5064775;28;20182;-92
2022/11/08 11:38:54;;;;;;;3.77;0.30;;;16.30;20.10;;;;;;5062300;28;20456;-88
2022/11/08 11:41:46;;;;;;;1.73;0.37;;;16.30;1.00;;;;;;5065479;28;20434;-93
2022/11/08 11:44:30;;;;;;;2.40;0.33;;;16.30;99.90;;;;;;5065728;28;20795;-88
2022/11/08 11:47:16;;;;;;;2.03;0.30;;;16.20;1.00;;;;;;5063581;28;20403;-91
2022/11/08 11:49:46;;;;;;;0.90;0.20;;;16.30;1.00;;;;;;5064489;28;20451;-91
2022/11/08 11:52:18;;;;;;;5.53;0.30;;;16.40;99.90;;;;;;5063759;28;20463;-84
2022/11/08 11:54:46;;;;;;;0.77;0.20;;;16.50;1.00;;;;;;5063669;28;20421;-94
2022/11/08 11:57:21;;;;;;;2.73;0.60;;;16.40;99.90;;;;;;5064324;28;20425;-85
2022/11/08 12:00:11;;;;;;;1.07;0.20;;;16.50;99.90;;;;;;5057575;28;20506;-86
2022/11/08 12:03:01;;;;;;;0.90;0.20;;;16.50;99.90;;;;;;5062204;28;20417;-87
2022/11/08 12:05:46;;;;;;;2.23;0.30;;;16.40;1.00;;;;;;5058853;28;20506;-87
2022/11/08 12:08:46;;;;;;;0.77;0.20;;;16.30;99.90;;;;;;5053049;28;20407;-85
2022/11/08 12:11:46;;;;;;;5.03;0.40;;;16.30;99.90;;;;;;5053252;28;20465;-85
2022/11/08 12:14:22;;;;;;;2.00;0.50;;;16.30;7.80;;;;;;5053324;28;20431;-84
2022/11/08 12:17:25;;;;;;;1.00;0.40;;;16.30;99.90;;;;;;5053078;28;20415;-85
2022/11/08 12:20:12;;;;;;;1.67;0.53;;;16.40;99.90;;;;;;5051789;28;20872;-84
2022/11/08 12:23:01;;;;;;;0.80;0.30;;;16.50;15.70;;;;;;5053325;28;20416;-88
2022/11/08 12:25:48;;;;;;;0.83;0.20;;;16.50;1.00;;;;;;5053624;28;20404;-86
2022/11/08 12:28:27;;;;;;;1.17;0.23;;;16.50;27.30;;;;;;5052910;28;20441;-86
2022/11/08 12:31:15;;;;;;;1.50;0.20;;;16.40;47.40;;;;;;5053301;28;20413;-87
2022/11/08 12:34:07;;;;;;;1.90;0.20;;;16.30;99.90;;;;;;5053200;28;20515;-87
2022/11/08 12:37:02;;;;;;;1.00;0.20;;;16.30;3.20;;;;;;5051963;28;20460;-86
2022/11/08 12:39:31;;;;;;;0.93;0.27;;;16.20;1.00;;;;;;5053540;28;20817;-90
2022/11/08 12:42:17;;;;;;;0.63;0.20;;;16.30;1.00;;;;;;5053654;28;20476;-83
2022/11/08 12:44:58;;;;;;;2.80;0.33;;;16.20;1.00;;;;;;5055329;28;20411;-82
2022/11/08 12:47:30;;;;;;;1.87;0.57;;;16.00;1.00;;;;;;5053256;28;20425;-93
2022/11/08 12:50:01;;;;;;;1.60;0.20;;;16.00;82.70;;;;;;5054535;28;20412;-93
2022/11/08 12:52:48;;;;;;;2.60;0.30;;;16.00;99.90;;;;;;5053600;28;20549;-93
2022/11/08 12:55:24;;;;;;;0.83;0.20;;;15.90;99.90;;;;;;5054690;28;20418;-85
2022/11/08 12:57:52;;;;;;;1.97;0.40;;;15.80;1.00;;;;;;5053492;28;20914;-85
2022/11/08 13:00:18;;;;;;;0.77;0.20;;;15.80;99.90;;;;;;5053682;28;20465;-83
2022/11/08 13:02:56;;;;;;;0.70;0.20;;;15.80;99.90;;;;;;5052228;28;20513;-82
2022/11/08 13:05:36;;;;;;;2.37;0.20;;;15.70;99.90;;;;;;5052543;28;20177;-83
2022/11/08 13:08:33;;;;;;;1.93;0.20;;;15.70;1.00;;;;;;5052738;28;20465;-81
2022/11/08 13:11:04;;;;;;;2.57;0.43;;;15.70;1.00;;;;;;5053301;28;20455;-82
2022/11/08 13:14:00;;;;;;;0.60;0.20;;;15.80;99.90;;;;;;5054853;28;20477;-81
2022/11/08 13:16:32;;;;;;;1.60;0.20;;;15.70;99.90;;;;;;5053913;28;20913;-92
2022/11/08 13:19:05;;;;;;;1.60;0.20;;;15.60;99.90;;;;;;5055716;28;20413;-86
2022/11/08 13:21:39;;;;;;;0.73;0.33;;;15.60;99.90;;;;;;5054362;28;20395;-95